Time;durP1;ratioP1;P1;durP2;ratioP2;P2;SDS_P1;SDS_P2;PMS_P1;PMS_P2;Temp;Humidity;BMP_temperature;BMP_pressure;BME280_temperature;BME280_humidity;BME280_pressure;Samples;Min_cycle;Max_cycle;Signal;HPM_P1;HPM_P2
2023/03/15 00:01:19;;;;;;;9.48;4.30;;;;;;;1.28;100.00;101037.06;6178519;23;20005;-82
2023/03/15 00:03:45;;;;;;;6.80;3.60;;;;;;;1.35;100.00;101053.63;6177111;23;20250;-82
2023/03/15 00:06:11;;;;;;;6.88;3.40;;;;;;;1.36;100.00;101050.13;6177301;23;20032;-82
2023/03/15 00:08:37;;;;;;;6.13;3.10;;;;;;;1.35;100.00;101048.38;6176771;23;20206;-81
2023/03/15 00:11:02;;;;;;;8.45;3.78;;;;;;;1.30;100.00;101034.47;6151523;23;20020;-81
2023/03/15 00:13:29;;;;;;;6.40;3.80;;;;;;;1.29;100.00;101040.56;6178197;23;20009;-81
2023/03/15 00:15:59;;;;;;;5.63;3.35;;;;;;;1.26;100.00;101033.59;6178305;23;20059;-82
2023/03/15 00:18:26;;;;;;;6.65;3.58;;;;;;;1.31;100.00;101046.69;6177320;23;20009;-82
2023/03/15 00:20:51;;;;;;;6.25;3.17;;;;;;;1.35;100.00;101033.50;6176343;23;20012;-81
2023/03/15 00:23:17;;;;;;;7.75;3.83;;;;;;;1.26;100.00;101028.38;6177701;23;20008;-83
2023/03/15 00:25:47;;;;;;;8.45;4.45;;;;;;;1.33;100.00;101037.88;6176590;23;20009;-82
2023/03/15 00:28:13;;;;;;;6.78;3.92;;;;;;;1.31;100.00;101042.28;6178977;23;20339;-81
2023/03/15 00:30:38;;;;;;;8.18;3.90;;;;;;;1.31;100.00;101054.53;6177913;23;20335;-82
2023/03/15 00:33:06;;;;;;;7.97;4.25;;;;;;;1.28;100.00;101055.44;6178302;23;20011;-82
2023/03/15 00:35:32;;;;;;;9.10;4.28;;;;;;;1.38;100.00;101061.44;6176952;23;20102;-82
2023/03/15 00:37:59;;;;;;;10.95;4.63;;;;;;;1.41;100.00;101064.91;6177065;23;20008;-82
2023/03/15 00:40:24;;;;;;;11.00;5.05;;;;;;;1.44;100.00;101072.75;6177355;23;20043;-82
2023/03/15 00:42:50;;;;;;;7.22;4.57;;;;;;;1.45;100.00;101060.50;6177715;23;20001;-82
2023/03/15 00:45:17;;;;;;;8.68;4.82;;;;;;;1.48;100.00;101066.59;6177915;23;20008;-82
2023/03/15 00:47:43;;;;;;;9.25;4.97;;;;;;;1.57;100.00;101070.88;6177521;23;20005;-82
2023/03/15 00:50:09;;;;;;;12.85;5.20;;;;;;;1.57;100.00;101068.25;6176799;23;20499;-82
2023/03/15 00:52:36;;;;;;;10.68;4.82;;;;;;;1.55;100.00;101054.31;6149374;23;20439;-82
2023/03/15 00:55:02;;;;;;;9.32;5.55;;;;;;;1.60;100.00;101068.22;6177273;23;20031;-82
2023/03/15 00:57:27;;;;;;;9.15;5.63;;;;;;;1.51;100.00;101044.72;6177429;23;20092;-82
2023/03/15 00:59:52;;;;;;;10.32;6.35;;;;;;;1.55;100.00;101056.03;6176284;23;20005;-82
2023/03/15 01:02:20;;;;;;;10.98;5.40;;;;;;;1.48;100.00;101045.63;6177173;23;20036;-82
2023/03/15 01:04:47;;;;;;;14.40;6.55;;;;;;;1.47;100.00;101041.25;6176907;23;20726;-82
2023/03/15 01:07:12;;;;;;;9.98;6.10;;;;;;;1.55;100.00;101049.06;6177045;23;20096;-83
2023/03/15 01:09:37;;;;;;;10.57;6.95;;;;;;;1.52;100.00;101051.69;6176690;23;20008;-81
2023/03/15 01:12:03;;;;;;;15.20;7.38;;;;;;;1.43;100.00;101039.56;6179540;23;20323;-82
2023/03/15 01:14:28;;;;;;;12.88;8.00;;;;;;;1.56;100.00;101063.03;6178340;23;20009;-81
2023/03/15 01:16:53;;;;;;;10.98;7.88;;;;;;;1.56;100.00;101055.16;6177047;23;20730;-82
2023/03/15 01:19:19;;;;;;;12.63;8.10;;;;;;;1.55;100.00;101056.94;6176858;23;20104;-82
2023/03/15 01:21:46;;;;;;;13.45;9.52;;;;;;;1.44;100.00;101038.66;6177992;23;20016;-83
2023/03/15 01:24:13;;;;;;;21.13;12.75;;;;;;;1.62;100.00;101066.44;6178387;23;20550;-83
2023/03/15 01:26:38;;;;;;;15.90;14.20;;;;;;;1.64;100.00;101061.19;6185638;23;20015;-81
2023/03/15 01:29:04;;;;;;;19.33;15.63;;;;;;;1.56;100.00;101061.28;6190964;23;19997;-82
2023/03/15 01:31:30;;;;;;;21.85;17.40;;;;;;;1.59;100.00;101071.75;6188778;23;20023;-82
2023/03/15 01:33:57;;;;;;;19.13;17.27;;;;;;;1.55;100.00;101075.28;6181133;23;20490;-82
2023/03/15 01:36:22;;;;;;;18.40;16.65;;;;;;;1.53;100.00;101074.41;6176174;23;20024;-82
2023/03/15 01:38:52;;;;;;;18.38;16.27;;;;;;;1.48;100.00;101084.97;6176150;23;20835;-83
2023/03/15 01:41:18;;;;;;;16.73;15.13;;;;;;;1.42;100.00;101077.16;6177018;23;20015;-83
2023/03/15 01:43:47;;;;;;;17.17;15.40;;;;;;;1.36;100.00;101084.22;6176413;23;20005;-83
2023/03/15 01:46:33;;;;;;;16.83;15.02;;;;;;;1.28;100.00;101086.03;6151615;23;20060;-82
2023/03/15 01:49:05;;;;;;;17.20;15.57;;;;;;;1.24;100.00;101099.16;6194909;23;20005;-82
2023/03/15 01:51:33;;;;;;;16.90;15.20;;;;;;;1.23;100.00;101097.41;6201115;23;20510;-82
2023/03/15 01:54:01;;;;;;;17.08;15.30;;;;;;;1.21;100.00;101096.59;6201057;23;20001;-81
2023/03/15 01:56:28;;;;;;;18.27;16.40;;;;;;;1.18;100.00;101093.13;6180268;23;20443;-82
2023/03/15 01:58:56;;;;;;;17.83;16.02;;;;;;;1.27;100.00;101106.13;6176795;23;20005;-83
2023/03/15 02:01:21;;;;;;;19.27;17.20;;;;;;;1.23;100.00;101088.69;6177001;23;20084;-81
2023/03/15 02:04:00;;;;;;;18.80;16.90;;;;;;;1.23;100.00;101094.81;6177228;23;20036;-81
2023/03/15 02:06:25;;;;;;;19.00;17.13;;;;;;;1.25;100.00;101086.91;6152379;23;20075;-83
2023/03/15 02:08:58;;;;;;;18.90;17.08;;;;;;;1.22;100.00;101094.81;6178358;23;20419;-82
2023/03/15 02:11:25;;;;;;;19.45;17.33;;;;;;;1.19;100.00;101105.34;6151547;23;20007;-82
2023/03/15 02:13:51;;;;;;;19.08;17.27;;;;;;;1.21;100.00;101108.78;6177663;23;20009;-83
2023/03/15 02:16:17;;;;;;;18.70;16.85;;;;;;;1.19;100.00;101110.56;6177965;23;20008;-82
2023/03/15 02:18:43;;;;;;;20.67;18.38;;;;;;;1.24;100.00;101116.66;6176082;23;20005;-82
2023/03/15 02:21:46;;;;;;;18.17;16.30;;;;;;;1.23;100.00;101122.78;6177131;23;20138;-81
2023/03/15 02:24:20;;;;;;;19.23;17.33;;;;;;;1.19;100.00;101128.94;6177775;23;20083;-82
2023/03/15 02:26:56;;;;;;;19.90;17.98;;;;;;;1.22;100.00;101128.91;6179412;23;20032;-80
2023/03/15 02:29:25;;;;;;;20.95;18.77;;;;;;;1.22;100.00;101135.03;6180086;23;20599;-81
2023/03/15 02:31:51;;;;;;;21.25;19.08;;;;;;;1.22;100.00;101132.41;6176367;23;20331;-82
2023/03/15 02:34:17;;;;;;;22.40;20.00;;;;;;;1.16;100.00;101126.31;6175448;23;20036;-82
2023/03/15 02:36:42;;;;;;;20.45;18.25;;;;;;;1.09;100.00;101129.91;6176523;23;20016;-84
2023/03/15 02:39:17;;;;;;;19.17;17.17;;;;;;;1.08;100.00;101134.25;6175917;23;20005;-82
2023/03/15 02:41:48;;;;;;;18.80;16.80;;;;;;;0.98;100.00;101132.56;6174806;23;20008;-82
2023/03/15 02:44:23;;;;;;;19.05;17.15;;;;;;;0.98;100.00;101136.06;6175841;23;20080;-82
2023/03/15 02:46:52;;;;;;;17.55;15.77;;;;;;;0.89;100.00;101128.28;6174981;23;20016;-81
2023/03/15 02:49:21;;;;;;;19.33;16.80;;;;;;;0.96;100.00;101147.44;6175752;23;20005;-81
2023/03/15 02:51:47;;;;;;;18.13;16.25;;;;;;;0.91;100.00;101141.34;6175135;23;20021;-81
2023/03/15 02:54:12;;;;;;;17.33;15.57;;;;;;;0.91;100.00;101155.31;6175514;23;20015;-82
2023/03/15 02:56:37;;;;;;;16.77;14.95;;;;;;;0.86;100.00;101145.75;6175779;23;20020;-83
2023/03/15 02:59:03;;;;;;;16.50;14.85;;;;;;;0.81;100.00;101145.78;6174822;23;20165;-83
2023/03/15 03:01:28;;;;;;;18.15;15.18;;;;;;;0.89;100.00;101154.47;6173748;23;20001;-82
2023/03/15 03:03:53;;;;;;;16.67;14.95;;;;;;;0.84;100.00;101163.25;6175408;23;20004;-83
2023/03/15 03:06:19;;;;;;;16.80;15.10;;;;;;;0.86;100.00;101164.09;6175994;23;20005;-82
2023/03/15 03:08:45;;;;;;;16.63;14.93;;;;;;;0.83;100.00;101170.22;6173875;23;20036;-82
2023/03/15 03:11:13;;;;;;;16.90;14.65;;;;;;;0.83;100.00;101167.59;6175499;23;20001;-83
2023/03/15 03:13:39;;;;;;;17.70;15.80;;;;;;;0.88;100.00;101183.28;6177045;23;20433;-81
2023/03/15 03:16:05;;;;;;;16.40;14.70;;;;;;;0.82;100.00;101178.09;6177195;23;20012;-82
2023/03/15 03:18:34;;;;;;;16.63;14.82;;;;;;;0.81;100.00;101182.47;6174832;23;20319;-82
2023/03/15 03:21:00;;;;;;;17.88;14.93;;;;;;;0.82;100.00;101192.06;6176896;23;20001;-82
2023/03/15 03:23:26;;;;;;;16.20;14.50;;;;;;;0.75;100.00;101182.50;6176300;23;20089;-83
2023/03/15 03:25:53;;;;;;;14.93;13.43;;;;;;;0.75;100.00;101198.22;6176610;23;20089;-82
2023/03/15 03:28:19;;;;;;;15.20;13.63;;;;;;;0.72;100.00;101198.25;6148763;23;20001;-82
2023/03/15 03:30:45;;;;;;;14.40;12.90;;;;;;;0.66;100.00;101198.25;6176410;23;20091;-82
2023/03/15 03:33:10;;;;;;;13.75;12.43;;;;;;;0.61;100.00;101194.81;6177492;23;20690;-82
2023/03/15 03:35:35;;;;;;;14.27;12.50;;;;;;;0.60;100.00;101195.69;6176504;23;20016;-82
2023/03/15 03:38:01;;;;;;;13.95;12.52;;;;;;;0.55;100.00;101200.06;6178059;23;20009;-83
2023/03/15 03:40:26;;;;;;;18.15;13.55;;;;;;;0.52;100.00;101206.19;6178251;23;20009;-82
2023/03/15 03:42:51;;;;;;;14.23;12.73;;;;;;;0.44;100.00;101213.19;6176873;23;20009;-81
2023/03/15 03:45:17;;;;;;;13.65;12.25;;;;;;;0.35;100.00;101213.25;6188093;23;20188;-82
2023/03/15 03:47:42;;;;;;;13.68;12.38;;;;;;;0.23;100.00;101208.91;6186873;23;20048;-81
2023/03/15 03:50:09;;;;;;;14.88;13.38;;;;;;;0.19;100.00;101221.13;6186819;23;20009;-81
2023/03/15 03:52:35;;;;;;;14.80;13.30;;;;;;;0.09;100.00;101214.19;6176546;23;20229;-82
2023/03/15 03:55:00;;;;;;;15.63;13.23;;;;;;;0.11;100.00;101225.50;6177376;23;20005;-81
2023/03/15 03:57:26;;;;;;;15.15;13.38;;;;;;;0.08;100.00;101222.88;6176510;23;20063;-81
2023/03/15 03:59:51;;;;;;;15.02;13.40;;;;;;;-0.01;100.00;101223.75;6176983;23;20067;-81
2023/03/15 04:02:17;;;;;;;15.52;13.93;;;;;;;-0.06;100.00;101225.53;6184623;23;20039;-80
2023/03/15 04:04:42;;;;;;;15.80;13.68;;;;;;;-0.11;100.00;101219.44;6199540;23;20088;-80
2023/03/15 04:07:07;;;;;;;15.20;13.48;;;;;;;-0.09;100.00;101237.75;6200313;23;20408;-81
2023/03/15 04:09:36;;;;;;;14.80;13.30;;;;;;;-0.15;100.00;101232.53;6189981;23;20396;-82
2023/03/15 04:12:02;;;;;;;15.27;13.10;;;;;;;-0.11;100.00;101247.34;6177086;23;20383;-82
2023/03/15 04:14:27;;;;;;;15.75;13.52;;;;;;;-0.25;100.00;101226.44;6177587;23;20419;-82
2023/03/15 04:16:53;;;;;;;15.55;13.77;;;;;;;-0.16;100.00;101259.56;6178612;23;20004;-82
2023/03/15 04:19:19;;;;;;;15.93;14.10;;;;;;;-0.16;100.00;101257.81;6178533;23;20009;-82
2023/03/15 04:21:46;;;;;;;16.25;13.80;;;;;;;-0.20;100.00;101260.44;6179560;23;20143;-82
2023/03/15 04:24:11;;;;;;;16.88;14.25;;;;;;;-0.19;100.00;101272.63;6179727;23;20005;-81
2023/03/15 04:26:37;;;;;;;17.08;14.75;;;;;;;-0.29;100.00;101262.19;6177551;23;20490;-82
2023/03/15 04:29:03;;;;;;;18.20;15.68;;;;;;;-0.25;100.00;101276.13;6177930;23;20076;-82
2023/03/15 04:31:28;;;;;;;18.33;15.90;;;;;;;-0.30;100.00;101275.25;6178702;23;20060;-82
2023/03/15 04:33:54;;;;;;;20.67;16.73;;;;;;;-0.30;100.00;101272.63;6179165;23;20005;-82
2023/03/15 04:36:23;;;;;;;19.33;16.23;;;;;;;-0.32;100.00;101280.47;6178659;23;20043;-83
2023/03/15 04:38:49;;;;;;;21.73;16.70;;;;;;;-0.26;100.00;101297.91;6177175;23;20252;-83
2023/03/15 04:41:16;;;;;;;21.00;17.70;;;;;;;-0.31;100.00;101291.81;6177591;23;20039;-83
2023/03/15 04:43:42;;;;;;;22.48;18.30;;;;;;;-0.31;100.00;101299.66;6176698;23;20024;-82
2023/03/15 04:46:07;;;;;;;23.10;19.55;;;;;;;-0.41;100.00;101290.94;6178145;23;20080;-82
2023/03/15 04:48:33;;;;;;;25.85;19.48;;;;;;;-0.40;100.00;101290.06;6149225;23;20345;-83
2023/03/15 04:50:58;;;;;;;24.00;18.88;;;;;;;-0.39;100.00;101301.38;6177179;23;20005;-82
2023/03/15 04:53:24;;;;;;;25.05;19.27;;;;;;;-0.41;100.00;101292.69;6177911;23;20063;-83
2023/03/15 04:55:49;;;;;;;22.58;19.13;;;;;;;-0.44;100.00;101293.53;6176713;23;20009;-83
2023/03/15 04:58:15;;;;;;;23.25;19.25;;;;;;;-0.42;100.00;101301.38;6177296;23;20009;-83
2023/03/15 05:00:40;;;;;;;26.02;19.90;;;;;;;-0.45;100.00;101296.16;6176269;23;20009;-83
2023/03/15 05:03:05;;;;;;;25.48;20.35;;;;;;;-0.42;100.00;101306.59;6176948;23;20016;-82
2023/03/15 05:05:32;;;;;;;24.67;19.95;;;;;;;-0.46;100.00;101304.84;6176633;23;20011;-83
2023/03/15 05:07:57;;;;;;;28.88;20.83;;;;;;;-0.52;100.00;101303.13;6176602;23;20517;-83
2023/03/15 05:10:24;;;;;;;27.48;20.25;;;;;;;-0.53;100.00;101310.09;6177340;23;20595;-84
2023/03/15 05:12:50;;;;;;;27.48;19.88;;;;;;;-0.51;100.00;101313.56;6177801;23;20008;-84
2023/03/15 05:15:15;;;;;;;27.50;20.23;;;;;;;-0.52;100.00;101322.28;6179543;23;20331;-84
2023/03/15 05:17:41;;;;;;;28.30;21.38;;;;;;;-0.60;100.00;101320.53;6175841;23;20008;-84
2023/03/15 05:20:11;;;;;;;29.48;22.17;;;;;;;-0.59;100.00;101317.91;6177712;23;20009;-83
2023/03/15 05:22:37;;;;;;;28.23;21.52;;;;;;;-0.61;100.00;101317.03;6178342;23;20092;-82
2023/03/15 05:25:02;;;;;;;30.33;23.20;;;;;;;-0.55;100.00;101332.72;6177355;23;20080;-83
2023/03/15 05:27:28;;;;;;;28.77;22.48;;;;;;;-0.59;100.00;101333.59;6175744;23;20001;-83
2023/03/15 05:29:53;;;;;;;28.95;21.70;;;;;;;-0.50;100.00;101345.84;6178063;23;20267;-83
2023/03/15 05:32:25;;;;;;;28.55;22.15;;;;;;;-0.48;100.00;101348.44;6177661;23;20340;-83
2023/03/15 05:34:53;;;;;;;30.85;21.95;;;;;;;-0.47;100.00;101352.81;6176961;23;20097;-84
2023/03/15 05:37:20;;;;;;;31.05;22.90;;;;;;;-0.42;100.00;101359.78;6151059;23;20012;-84
2023/03/15 05:39:46;;;;;;;28.30;22.35;;;;;;;-0.37;100.00;101355.47;6176055;23;20001;-84
2023/03/15 05:42:12;;;;;;;30.00;22.05;;;;;;;-0.36;100.00;101351.09;6178984;23;20011;-83
2023/03/15 05:44:37;;;;;;;29.55;21.58;;;;;;;-0.37;100.00;101351.97;6177636;23;20603;-84
2023/03/15 05:47:03;;;;;;;28.35;21.95;;;;;;;-0.31;100.00;101362.44;6177730;23;20481;-83
2023/03/15 05:49:28;;;;;;;29.92;22.42;;;;;;;-0.33;100.00;101354.59;6179406;23;20031;-83
2023/03/15 05:51:54;;;;;;;31.08;22.10;;;;;;;-0.38;100.00;101361.53;6181472;23;20079;-83
2023/03/15 05:54:19;;;;;;;31.17;23.45;;;;;;;-0.54;100.00;101347.56;6180936;23;20360;-83
2023/03/15 05:56:44;;;;;;;29.42;22.73;;;;;;;-0.49;100.00;101360.66;6180025;23;20021;-82
2023/03/15 05:59:10;;;;;;;29.92;23.33;;;;;;;-0.55;100.00;101347.56;6157611;23;20012;-83
2023/03/15 06:01:35;;;;;;;31.30;23.10;;;;;;;-0.54;100.00;101358.03;6182624;23;20674;-82
2023/03/15 06:04:00;;;;;;;33.38;23.42;;;;;;;-0.49;100.00;101378.09;6161655;23;20312;-83
2023/03/15 06:06:26;;;;;;;34.45;23.05;;;;;;;-0.57;100.00;101375.44;6180835;23;20100;-82
2023/03/15 06:08:51;;;;;;;31.08;23.67;;;;;;;-0.54;100.00;101384.19;6172353;23;20362;-83
2023/03/15 06:11:16;;;;;;;33.08;24.48;;;;;;;-0.53;100.00;101391.16;6175006;23;20020;-83
2023/03/15 06:13:41;;;;;;;34.15;25.52;;;;;;;-0.63;100.00;101381.50;6177811;23;20004;-82
2023/03/15 06:16:07;;;;;;;31.77;24.27;;;;;;;-0.56;100.00;101390.25;6198436;23;20051;-82
2023/03/15 06:18:32;;;;;;;36.35;27.05;;;;;;;-0.50;100.00;101398.13;6198032;23;20005;-82
2023/03/15 06:20:57;;;;;;;36.35;27.30;;;;;;;-0.55;100.00;101392.00;6190920;23;20088;-84
2023/03/15 06:23:23;;;;;;;38.35;26.95;;;;;;;-0.49;100.00;101399.88;6172366;23;20443;-84
2023/03/15 06:25:48;;;;;;;38.75;27.02;;;;;;;-0.47;100.00;101407.72;6174181;23;20004;-82
2023/03/15 06:28:13;;;;;;;37.45;27.33;;;;;;;-0.48;100.00;101414.69;6174142;23;19997;-83
2023/03/15 06:30:39;;;;;;;36.63;26.88;;;;;;;-0.50;100.00;101413.84;6173834;23;20407;-83
2023/03/15 06:33:05;;;;;;;40.17;29.20;;;;;;;-0.43;100.00;101428.66;6176342;23;20000;-82
2023/03/15 06:35:30;;;;;;;37.67;27.45;;;;;;;-0.41;100.00;101431.28;6175387;23;20676;-82
2023/03/15 06:37:55;;;;;;;41.03;28.77;;;;;;;-0.37;100.00;101436.53;6176545;23;20001;-83
2023/03/15 06:40:21;;;;;;;42.00;29.48;;;;;;;-0.30;100.00;101440.91;6179641;23;20013;-83
2023/03/15 06:42:46;;;;;;;43.03;30.00;;;;;;;-0.22;100.00;101442.69;6177580;23;20008;-84
2023/03/15 06:45:11;;;;;;;42.45;30.05;;;;;;;-0.12;100.00;101447.94;6178042;23;20029;-83
2023/03/15 06:47:37;;;;;;;43.05;30.10;;;;;;;0.12;100.00;101457.56;6175198;23;20368;-84
2023/03/15 06:50:03;;;;;;;47.38;31.95;;;;;;;0.24;100.00;101460.22;6177073;23;20012;-83
2023/03/15 06:52:32;;;;;;;48.22;31.27;;;;;;;0.37;100.00;101471.56;6175214;23;20068;-82
2023/03/15 06:54:57;;;;;;;46.08;31.98;;;;;;;0.44;100.00;101475.97;6150132;23;20040;-82
2023/03/15 06:57:23;;;;;;;43.88;29.92;;;;;;;0.49;100.00;101475.97;6175201;23;20024;-83
2023/03/15 06:59:48;;;;;;;40.28;29.48;;;;;;;0.52;100.00;101475.09;6175771;23;20054;-83
2023/03/15 07:02:16;;;;;;;39.63;29.23;;;;;;;0.58;100.00;101480.31;6175059;23;20005;-83
2023/03/15 07:04:43;;;;;;;42.00;29.30;;;;;;;0.65;100.00;101469.84;6175174;23;20012;-83
2023/03/15 07:07:09;;;;;;;40.83;30.83;;;;;;;0.73;100.00;101477.72;6147436;23;20009;-83
2023/03/15 07:09:34;;;;;;;40.60;29.25;;;;;;;0.85;100.00;101480.34;6175496;23;20058;-83
2023/03/15 07:12:00;;;;;;;45.78;30.40;;;;;;;0.86;100.00;101475.97;6150221;23;20434;-83
2023/03/15 07:14:25;;;;;;;41.03;30.50;;;;;;;0.99;100.00;101489.03;6151486;23;20347;-82
2023/03/15 07:16:50;;;;;;;41.78;30.52;;;;;;;1.06;100.00;101491.66;6175893;23;20070;-84
2023/03/15 07:19:15;;;;;;;41.05;30.73;;;;;;;1.10;100.00;101494.28;6177453;23;20039;-83
2023/03/15 07:21:41;;;;;;;35.33;27.88;;;;;;;1.17;100.00;101505.63;6175529;23;20632;-83
2023/03/15 07:24:06;;;;;;;39.08;28.60;;;;;;;1.19;100.00;101519.63;6176400;23;20063;-83
2023/03/15 07:26:32;;;;;;;37.28;28.25;;;;;;;1.23;100.00;101521.34;6148306;23;20011;-83
2023/03/15 07:28:57;;;;;;;35.28;27.08;;;;;;;1.31;100.00;101523.97;6175718;23;20070;-83
2023/03/15 07:31:22;;;;;;;32.97;26.02;;;;;;;1.33;100.00;101516.94;6173134;23;20012;-82
2023/03/15 07:33:47;;;;;;;33.70;24.67;;;;;;;1.36;100.00;101533.56;6173817;23;20009;-83
2023/03/15 07:36:16;;;;;;;30.08;22.80;;;;;;;1.36;100.00;101535.31;6173582;23;20095;-83
2023/03/15 07:38:41;;;;;;;29.15;22.38;;;;;;;1.45;100.00;101530.91;6174326;23;20006;-84
2023/03/15 07:41:07;;;;;;;28.70;23.17;;;;;;;1.54;100.00;101524.78;6175375;23;20016;-83
2023/03/15 07:43:33;;;;;;;33.42;23.90;;;;;;;1.84;100.00;101542.19;6173622;23;20009;-83
2023/03/15 07:46:00;;;;;;;31.75;25.65;;;;;;;1.88;100.00;101541.31;6173457;23;20013;-83
2023/03/15 07:48:25;;;;;;;27.23;22.20;;;;;;;1.97;100.00;101541.25;6148058;23;20039;-83
2023/03/15 07:50:51;;;;;;;25.50;21.05;;;;;;;2.13;100.00;101544.69;6174011;23;20036;-83
2023/03/15 07:53:17;;;;;;;27.88;21.35;;;;;;;2.27;100.00;101559.50;6175427;23;20036;-82
2023/03/15 07:55:42;;;;;;;26.45;19.55;;;;;;;2.39;100.00;101557.69;6172338;23;20001;-83
2023/03/15 07:58:07;;;;;;;22.73;18.30;;;;;;;2.46;100.00;101559.38;6174797;23;20036;-82
2023/03/15 08:00:33;;;;;;;22.33;17.65;;;;;;;2.44;100.00;101571.66;6175857;23;20331;-83
2023/03/15 08:02:58;;;;;;;23.08;16.55;;;;;;;2.66;100.00;101577.63;6175616;23;20052;-84
2023/03/15 08:05:24;;;;;;;17.33;14.95;;;;;;;2.78;100.00;101562.69;6173271;23;20005;-83
2023/03/15 08:07:50;;;;;;;19.48;14.57;;;;;;;3.08;100.00;101578.22;6177661;23;20008;-82
2023/03/15 08:10:16;;;;;;;18.08;13.75;;;;;;;3.58;100.00;101592.66;6184122;23;20024;-82
2023/03/15 08:12:42;;;;;;;15.05;13.43;;;;;;;4.10;100.00;101585.97;6180280;23;20016;-82
2023/03/15 08:15:15;;;;;;;19.90;13.88;;;;;;;4.80;100.00;101597.28;6178281;23;20020;-81
2023/03/15 08:17:41;;;;;;;;;;;;;;;5.32;100.00;101602.63;6186681;23;20090;-83
2023/03/15 08:20:10;;;;;;;14.65;9.88;;;;;;;6.30;100.00;101602.53;6199458;23;19908;-82
2023/03/15 08:22:36;;;;;;;10.05;8.57;;;;;;;6.64;95.67;101602.69;6199886;23;20031;-83
2023/03/15 08:25:01;;;;;;;10.77;9.18;;;;;;;6.92;95.67;101602.91;6180344;23;20004;-83
2023/03/15 08:27:27;;;;;;;8.95;7.72;;;;;;;7.15;90.17;101594.44;6178304;23;20004;-82
2023/03/15 08:29:52;;;;;;;9.95;7.50;;;;;;;7.50;86.19;101606.78;6179286;23;20005;-82
2023/03/15 08:32:18;;;;;;;9.38;7.18;;;;;;;7.71;85.48;101611.50;6180051;23;20422;-82
2023/03/15 08:34:44;;;;;;;8.82;7.97;;;;;;;8.17;83.44;101610.25;6179285;23;20005;-83
2023/03/15 08:37:10;;;;;;;9.15;8.07;;;;;;;8.82;80.56;101611.88;6179777;23;20380;-82
2023/03/15 08:39:36;;;;;;;7.38;6.72;;;;;;;9.20;75.61;101615.97;6152764;23;20677;-83
2023/03/15 08:42:02;;;;;;;8.23;7.43;;;;;;;9.66;75.36;101618.84;6179707;23;20005;-83
2023/03/15 08:44:27;;;;;;;6.70;6.00;;;;;;;9.91;71.13;101616.19;6177912;23;20012;-82
2023/03/15 08:46:52;;;;;;;6.50;5.88;;;;;;;10.29;69.19;101625.47;6175744;23;20059;-82
2023/03/15 08:49:18;;;;;;;6.65;5.85;;;;;;;10.79;68.67;101625.34;6176921;23;20091;-82
2023/03/15 08:51:43;;;;;;;6.50;5.50;;;;;;;10.90;65.18;101631.09;6175518;23;20005;-85
2023/03/15 08:54:08;;;;;;;8.68;5.93;;;;;;;11.18;63.72;101627.31;6181607;23;20008;-81
2023/03/15 08:56:37;;;;;;;7.15;5.93;;;;;;;11.46;63.40;101638.59;6178514;23;20005;-88
2023/03/15 08:59:03;;;;;;;9.27;5.63;;;;;;;11.77;60.73;101639.94;6182552;23;20016;-81
2023/03/15 09:01:29;;;;;;;6.20;5.43;;;;;;;12.10;60.17;101650.09;6178147;23;20020;-79
2023/03/15 09:03:54;;;;;;;5.75;4.57;;;;;;;12.05;59.05;101633.44;6177804;23;20016;-80
2023/03/15 09:06:19;;;;;;;6.97;5.28;;;;;;;12.72;57.30;101643.69;6176218;23;20000;-81
2023/03/15 09:08:45;;;;;;;5.57;5.07;;;;;;;12.58;56.45;101644.34;6179534;23;20029;-86
2023/03/15 09:11:10;;;;;;;6.80;5.70;;;;;;;12.99;56.98;101643.31;6178546;23;20012;-87
2023/03/15 09:13:38;;;;;;;6.25;5.10;;;;;;;13.74;54.12;101648.50;6176724;23;20537;-88
2023/03/15 09:16:04;;;;;;;8.45;4.80;;;;;;;13.93;50.90;101637.72;6180950;23;20032;-89
2023/03/15 09:18:29;;;;;;;5.32;4.50;;;;;;;14.17;50.66;101644.47;6181580;23;20055;-90
2023/03/15 09:20:55;;;;;;;4.75;4.18;;;;;;;15.03;48.94;101652.31;6177455;23;20100;-86
2023/03/15 09:23:21;;;;;;;6.53;4.70;;;;;;;15.62;46.49;101647.97;6178022;23;20019;-86
2023/03/15 09:25:47;;;;;;;5.18;4.68;;;;;;;16.17;47.25;101640.16;6176923;23;20037;-86
2023/03/15 09:28:12;;;;;;;7.47;4.40;;;;;;;16.38;43.70;101651.38;6178870;23;20387;-87
2023/03/15 09:30:39;;;;;;;6.85;4.50;;;;;;;15.58;44.85;101652.66;6177513;23;20458;-86
2023/03/15 09:33:05;;;;;;;6.32;4.53;;;;;;;15.64;45.19;101651.44;6178625;23;20012;-85
2023/03/15 09:35:30;;;;;;;6.15;4.38;;;;;;;16.36;44.21;101656.00;6176948;23;20001;-85
2023/03/15 09:37:56;;;;;;;6.30;3.88;;;;;;;17.32;40.59;101642.72;6178565;23;20487;-86
2023/03/15 09:40:26;;;;;;;6.43;3.75;;;;;;;16.63;42.10;101644.47;6178839;23;20100;-87
2023/03/15 09:43:00;;;;;;;5.63;3.20;;;;;;;14.78;44.33;101661.72;6178309;23;20012;-87
2023/03/15 09:45:36;;;;;;;7.22;2.80;;;;;;;15.06;46.90;101652.13;6176955;23;20012;-86
2023/03/15 09:48:13;;;;;;;5.70;2.60;;;;;;;15.97;42.78;101658.44;6178350;23;20578;-87
2023/03/15 09:50:44;;;;;;;7.05;3.28;;;;;;;14.54;42.22;101660.38;6176219;23;20005;-85
2023/03/15 09:53:34;;;;;;;6.88;4.28;;;;;;;12.86;51.06;101659.06;6176905;23;20005;-84
2023/03/15 09:55:59;;;;;;;5.13;3.53;;;;;;;11.11;50.18;101671.13;6177692;23;20027;-86
2023/03/15 09:58:31;;;;;;;7.55;3.97;;;;;;;10.31;53.99;101668.84;6178148;23;20021;-86
2023/03/15 10:01:11;;;;;;;7.47;4.03;;;;;;;11.91;53.42;101671.38;6177835;23;20016;-86
2023/03/15 10:03:51;;;;;;;6.65;3.63;;;;;;;14.86;48.49;101663.97;6178311;23;20015;-86
2023/03/15 10:06:27;;;;;;;6.75;2.95;;;;;;;17.07;41.99;101656.94;6177593;23;20024;-85
2023/03/15 10:08:55;;;;;;;6.65;3.10;;;;;;;18.60;37.58;101663.50;6177021;23;20224;-85
2023/03/15 10:11:55;;;;;;;7.47;3.42;;;;;;;20.12;38.47;101652.16;6178166;23;20062;-88
2023/03/15 10:14:55;;;;;;;6.95;3.30;;;;;;;21.21;36.25;101644.25;6179884;23;20008;-89
2023/03/15 10:17:42;;;;;;;6.50;3.22;;;;;;;18.89;39.73;101658.72;6152967;23;20009;-89
2023/03/15 10:20:17;;;;;;;5.55;3.40;;;;;;;16.26;41.25;101665.59;6184882;23;20395;-85
2023/03/15 10:22:53;;;;;;;5.63;2.70;;;;;;;16.01;39.99;101666.25;6188072;23;20036;-89
2023/03/15 10:25:27;;;;;;;5.93;3.00;;;;;;;16.17;39.10;101660.78;6177978;23;20004;-92
2023/03/15 10:27:58;;;;;;;5.47;2.40;;;;;;;16.98;36.84;101652.16;6205976;23;20008;-85
2023/03/15 10:30:33;;;;;;;5.15;2.47;;;;;;;19.39;34.24;101664.03;6206662;23;20037;-88
2023/03/15 10:33:11;;;;;;;5.75;2.97;;;;;;;20.80;32.52;101658.50;6206991;23;20297;-90
2023/03/15 10:35:37;;;;;;;7.38;6.20;;;;;;;21.53;29.52;101657.84;6205784;23;20032;-89
2023/03/15 10:38:14;;;;;;;9.32;6.10;;;;;;;22.10;30.41;101656.56;6198456;23;20009;-87
2023/03/15 10:40:49;;;;;;;6.55;2.97;;;;;;;22.57;30.48;101661.53;6187733;23;20020;-85
2023/03/15 10:43:21;;;;;;;6.13;2.80;;;;;;;23.39;25.80;101671.38;6182452;23;20435;-85
2023/03/15 10:46:03;;;;;;;3.47;2.00;;;;;;;24.00;26.95;101666.53;6180630;23;20009;-88
2023/03/15 10:48:30;;;;;;;4.70;1.95;;;;;;;23.80;23.38;101673.84;6181161;23;20064;-90
2023/03/15 10:50:59;;;;;;;4.78;2.20;;;;;;;21.19;25.05;101677.84;6182272;23;20028;-88
2023/03/15 10:53:25;;;;;;;4.45;2.03;;;;;;;19.87;27.10;101682.94;6183263;23;20088;-87
2023/03/15 10:56:00;;;;;;;4.90;2.30;;;;;;;20.80;29.04;101683.69;6179865;23;20080;-85
2023/03/15 10:58:30;;;;;;;3.08;2.13;;;;;;;19.54;28.47;101679.09;6180315;23;20071;-84
2023/03/15 11:01:06;;;;;;;6.07;2.40;;;;;;;18.68;30.60;101700.66;6177812;23;20467;-84
2023/03/15 11:03:32;;;;;;;5.25;2.13;;;;;;;20.47;29.56;101698.03;6176714;23;20017;-83
2023/03/15 11:05:58;;;;;;;5.55;2.03;;;;;;;21.82;27.25;101684.31;6181973;23;20013;-94
2023/03/15 15:02:06;;;;;;;2.90;1.02;;;;;;;13.65;27.39;101710.50;6175442;23;20347;-80
2023/03/15 15:04:32;;;;;;;1.17;0.82;;;;;;;13.54;30.21;101702.13;6176247;23;20194;-80
2023/03/15 15:06:58;;;;;;;2.80;1.13;;;;;;;13.48;30.16;101697.09;6191076;23;20009;-79
2023/03/15 15:09:27;;;;;;;1.88;1.05;;;;;;;13.10;30.58;101697.97;6189971;23;20001;-79